createdAt,value
2022-10-23T00:01:45.547Z,5.45
2022-10-23T00:04:31.325Z,5.13
2022-10-23T00:06:59.146Z,4.93
2022-10-23T00:09:27.005Z,6.20
2022-10-23T00:11:54.876Z,10.90
2022-10-23T00:14:25.195Z,5.93
2022-10-23T00:16:53.014Z,5.57
2022-10-23T00:19:20.682Z,5.50
2022-10-23T00:21:48.593Z,5.72
2022-10-23T00:24:16.364Z,13.32
2022-10-23T00:26:44.443Z,9.00
2022-10-23T00:29:12.711Z,8.30
2022-10-23T00:31:40.587Z,5.63
2022-10-23T00:34:09.192Z,5.22
2022-10-23T00:36:37.034Z,5.80
2022-10-23T00:39:05.704Z,4.95
2022-10-23T00:41:33.775Z,5.30
2022-10-23T00:44:09.207Z,8.07
2022-10-23T00:46:39.365Z,7.05
2022-10-23T00:49:09.664Z,5.50
2022-10-23T00:54:23.454Z,5.95
2022-10-23T00:56:56.536Z,6.45
2022-10-23T00:59:25.634Z,4.95
2022-10-23T01:01:53.688Z,4.07
2022-10-23T01:04:23.428Z,8.05
2022-10-23T01:07:23.304Z,22.33
2022-10-23T01:10:19.387Z,15.63
2022-10-23T01:13:33.150Z,16.98
2022-10-23T01:16:16.320Z,8.88
2022-10-23T01:19:09.145Z,7.65
2022-10-23T01:22:03.126Z,9.45
2022-10-23T01:24:58.963Z,8.73
2022-10-23T01:28:00.556Z,12.43
2022-10-23T01:30:32.430Z,11.48
2022-10-23T01:33:17.276Z,13.90
2022-10-23T01:36:24.006Z,13.55
2022-10-23T01:39:18.050Z,20.60
2022-10-23T01:42:19.272Z,25.00
2022-10-23T01:44:55.923Z,19.27
2022-10-23T01:47:30.884Z,10.52
2022-10-23T01:50:08.757Z,16.45
2022-10-23T01:52:37.770Z,16.77
2022-10-23T01:55:10.048Z,14.02
2022-10-23T01:57:41.978Z,8.90
2022-10-23T02:00:18.411Z,6.40
2022-10-23T02:02:56.021Z,6.68
2022-10-23T02:05:32.007Z,11.90
2022-10-23T02:08:01.775Z,11.25
2022-10-23T02:13:45.183Z,19.90
2022-10-23T02:16:46.507Z,8.55
2022-10-23T02:19:33.429Z,6.53
2022-10-23T02:22:23.501Z,4.93
2022-10-23T02:25:19.393Z,4.82
2022-10-23T02:27:56.281Z,3.72
2022-10-23T02:30:32.005Z,4.63
2022-10-23T02:33:12.545Z,16.00
2022-10-23T02:35:41.418Z,9.68
2022-10-23T02:38:41.950Z,4.65
2022-10-23T02:41:43.561Z,4.28
2022-10-23T02:44:30.546Z,3.53
2022-10-23T02:47:35.692Z,3.95
2022-10-23T02:50:28.350Z,17.70
2022-10-23T02:52:56.252Z,34.28
2022-10-23T02:55:29.948Z,27.52
2022-10-23T02:58:10.481Z,11.43
2022-10-23T03:00:53.967Z,11.38
2022-10-23T03:03:33.459Z,11.73
2022-10-23T03:06:01.730Z,9.05
2022-10-23T03:08:29.725Z,12.23
2022-10-23T03:10:58.417Z,7.25
2022-10-23T03:13:28.922Z,12.82
2022-10-23T03:15:56.646Z,6.50
2022-10-23T03:18:27.462Z,4.63
2022-10-23T03:20:59.982Z,6.88
2022-10-23T03:23:28.037Z,5.72
2022-10-23T03:25:56.549Z,9.52
2022-10-23T03:28:44.523Z,7.05
2022-10-23T03:31:12.482Z,24.13
2022-10-23T03:33:40.622Z,10.68
2022-10-23T03:36:11.344Z,10.43
2022-10-23T03:38:39.011Z,9.07
2022-10-23T03:41:06.978Z,6.38
2022-10-23T03:43:34.859Z,5.18
2022-10-23T03:46:03.231Z,4.35
2022-10-23T03:48:31.968Z,5.43
2022-10-23T03:50:59.953Z,4.50
2022-10-23T03:53:27.655Z,4.55
2022-10-23T03:55:55.357Z,7.95
2022-10-23T03:58:23.144Z,5.63
2022-10-23T04:00:51.475Z,5.95
2022-10-23T04:03:19.200Z,6.15
2022-10-23T04:05:49.973Z,5.30
2022-10-23T04:08:20.090Z,4.13
2022-10-23T04:10:50.760Z,3.88
2022-10-23T04:13:21.801Z,4.13
2022-10-23T04:15:51.530Z,3.92
2022-10-23T04:18:20.133Z,4.85
2022-10-23T04:20:49.522Z,9.02
2022-10-23T04:23:17.713Z,6.15
2022-10-23T04:28:16.023Z,5.50
2022-10-23T04:30:43.698Z,4.85
2022-10-23T04:33:13.290Z,9.02
2022-10-23T04:35:41.068Z,6.55
2022-10-23T04:38:08.911Z,6.38
2022-10-23T04:40:37.648Z,6.68
2022-10-23T04:43:05.857Z,5.97
2022-10-23T04:45:38.045Z,5.97
2022-10-23T04:48:06.056Z,5.55
2022-10-23T04:50:59.248Z,8.02
2022-10-23T04:53:46.893Z,6.78
2022-10-23T04:56:31.223Z,4.97
2022-10-23T04:59:10.100Z,5.28
2022-10-23T05:01:39.620Z,4.75
2022-10-23T05:04:09.103Z,6.72
2022-10-23T05:06:56.790Z,3.97
2022-10-23T05:09:40.722Z,4.88
2022-10-23T05:12:25.564Z,4.63
2022-10-23T05:14:54.412Z,5.50
2022-10-23T05:17:35.960Z,6.68
2022-10-23T05:20:09.375Z,16.85
2022-10-23T05:22:40.733Z,14.07
2022-10-23T05:25:13.141Z,12.20
2022-10-23T05:27:45.911Z,12.95
2022-10-23T05:30:15.965Z,13.55
2022-10-23T05:32:44.999Z,10.23
2022-10-23T05:35:20.440Z,11.55
2022-10-23T05:37:53.023Z,12.45
2022-10-23T05:40:24.177Z,15.43
2022-10-23T05:42:57.936Z,16.33
2022-10-23T05:45:50.689Z,22.23
2022-10-23T05:48:35.390Z,16.92
2022-10-23T05:51:11.761Z,14.70
2022-10-23T05:53:55.768Z,11.70
2022-10-23T05:56:52.163Z,20.77
2022-10-23T05:59:29.951Z,16.05
2022-10-23T06:02:36.196Z,12.57
2022-10-23T06:05:12.689Z,12.48
2022-10-23T06:08:01.301Z,12.90
2022-10-23T06:10:29.073Z,12.30
2022-10-23T06:13:00.378Z,12.02
2022-10-23T06:15:28.163Z,9.85
2022-10-23T06:18:05.608Z,13.80
2022-10-23T06:20:38.893Z,17.90
2022-10-23T06:23:12.143Z,21.23
2022-10-23T06:26:12.579Z,20.02
2022-10-23T06:28:51.971Z,16.67
2022-10-23T06:31:20.430Z,21.58
2022-10-23T06:33:51.121Z,20.00
2022-10-23T06:36:18.987Z,17.92
2022-10-23T06:38:46.864Z,30.58
2022-10-23T06:41:19.821Z,33.88
2022-10-23T06:43:53.454Z,36.30
2022-10-23T06:46:36.495Z,35.72
2022-10-23T06:49:04.292Z,33.15
2022-10-23T06:51:36.732Z,24.40
2022-10-23T06:54:05.922Z,25.08
2022-10-23T07:10:30.370Z,8.65
2022-10-23T07:15:47.263Z,11.82
2022-10-23T07:18:20.128Z,16.25
2022-10-23T07:21:11.375Z,14.07
2022-10-23T07:23:41.001Z,13.48
2022-10-23T07:26:17.435Z,12.07
2022-10-23T07:28:48.376Z,11.43
2022-10-23T07:31:28.156Z,10.40
2022-10-23T07:34:14.487Z,10.82
2022-10-23T07:36:43.968Z,10.88
2022-10-23T07:39:12.139Z,12.23
2022-10-23T07:41:47.457Z,15.20
2022-10-23T07:44:15.641Z,31.63
2022-10-23T07:46:43.304Z,17.73
2022-10-23T07:49:11.942Z,17.10
2022-10-23T07:51:40.915Z,15.75
2022-10-23T07:54:12.385Z,14.80
2022-10-23T07:57:02.177Z,17.15
2022-10-23T07:59:48.502Z,15.05
2022-10-23T08:16:53.229Z,20.15
2022-10-23T08:19:21.127Z,22.15
2022-10-23T08:21:54.916Z,20.73
2022-10-23T08:24:23.435Z,11.95
2022-10-23T08:26:51.464Z,8.93
2022-10-23T08:29:23.554Z,9.57
2022-10-23T08:31:56.340Z,9.25
2022-10-23T08:34:59.712Z,9.70
2022-10-23T08:37:30.625Z,8.02
2022-10-23T08:39:58.914Z,8.75
2022-10-23T08:42:52.821Z,8.38
2022-10-23T08:48:37.973Z,8.00
2022-10-23T08:51:40.520Z,7.32
2022-10-23T08:54:22.442Z,7.63
2022-10-23T08:56:59.825Z,4.88
2022-10-23T08:59:41.834Z,3.55
2022-10-23T09:02:46.664Z,2.60
2022-10-23T09:05:22.520Z,2.95
2022-10-23T09:08:16.819Z,2.83
2022-10-23T09:11:25.560Z,2.40
2022-10-23T09:13:55.732Z,2.58
2022-10-23T09:17:20.970Z,2.47
2022-10-23T09:20:07.898Z,2.55
2022-10-23T09:22:35.654Z,3.05
2022-10-23T09:25:03.672Z,3.63
2022-10-23T09:27:31.430Z,4.43
2022-10-23T09:29:59.476Z,3.17
2022-10-23T09:32:38.320Z,3.05
2022-10-23T09:35:06.977Z,4.25
2022-10-23T09:37:40.030Z,3.28
2022-10-23T09:40:38.926Z,3.80
2022-10-23T09:43:27.998Z,2.95
2022-10-23T09:46:06.180Z,3.97
2022-10-23T09:48:36.747Z,8.35
2022-10-23T09:51:21.334Z,6.38
2022-10-23T09:54:00.154Z,5.07
2022-10-23T09:56:28.372Z,2.40
2022-10-23T09:59:27.814Z,1.67
2022-10-23T10:01:59.999Z,1.60
2022-10-23T10:04:50.798Z,2.60
